createdAt,value
2018-09-21T00:02:13.096Z,54.70
2018-09-21T00:04:46.545Z,54.50
2018-09-21T00:07:19.927Z,54.80
2018-09-21T00:10:00.095Z,54.80
2018-09-21T00:12:33.824Z,54.70
2018-09-21T00:15:07.467Z,54.70
2018-09-21T00:17:47.467Z,54.80
2018-09-21T00:20:21.031Z,54.90
2018-09-21T00:22:54.447Z,54.90
2018-09-21T00:25:28.047Z,55.00
2018-09-21T00:28:01.610Z,55.60
2018-09-21T00:30:35.211Z,55.10
2018-09-21T00:33:08.834Z,55.10
2018-09-21T00:35:42.373Z,55.00
2018-09-21T00:38:22.277Z,55.10
2018-09-21T00:40:55.824Z,55.10
2018-09-21T00:43:29.544Z,55.10
2018-09-21T00:46:02.987Z,55.10
2018-09-21T00:48:36.451Z,55.10
2018-09-21T00:51:16.399Z,55.10
2018-09-21T00:53:49.798Z,55.00
2018-09-21T00:56:23.573Z,55.10
2018-09-21T00:58:57.012Z,55.20
2018-09-21T01:01:36.960Z,55.30
2018-09-21T01:04:16.838Z,55.30
2018-09-21T01:06:50.431Z,55.30
2018-09-21T01:09:24.883Z,55.30
2018-09-21T01:12:04.740Z,55.30
2018-09-21T01:14:38.208Z,55.30
2018-09-21T01:17:11.731Z,55.30
2018-09-21T01:19:45.204Z,55.40
2018-09-21T01:22:19.618Z,55.40
2018-09-21T01:24:53.154Z,55.40
2018-09-21T01:27:26.776Z,55.40
2018-09-21T01:30:00.307Z,55.50
2018-09-21T01:32:33.911Z,55.80
2018-09-21T01:35:07.328Z,55.50
2018-09-21T01:37:40.976Z,55.50
2018-09-21T01:40:14.434Z,56.10
2018-09-21T01:42:47.798Z,55.60
2018-09-21T01:45:21.427Z,55.70
2018-09-21T01:47:54.915Z,55.70
2018-09-21T01:50:28.385Z,55.80
2018-09-21T01:53:03.135Z,55.60
2018-09-21T01:55:36.564Z,55.80
2018-09-21T01:58:10.168Z,55.80
2018-09-21T02:00:43.739Z,56.00
2018-09-21T02:03:17.210Z,56.00
2018-09-21T02:05:50.796Z,56.00
2018-09-21T02:08:24.378Z,55.90
2018-09-21T02:10:58.088Z,56.00
2018-09-21T02:13:31.649Z,56.00
2018-09-21T02:16:05.118Z,56.10
2018-09-21T02:18:45.000Z,56.10
2018-09-21T02:21:18.424Z,56.10
2018-09-21T02:23:51.982Z,56.20
2018-09-21T02:26:26.193Z,56.30
2018-09-21T02:29:00.727Z,56.40
2018-09-21T02:31:34.249Z,56.50
2018-09-21T02:34:08.765Z,56.40
2018-09-21T02:36:42.588Z,56.40
2018-09-21T02:39:16.164Z,56.60
2018-09-21T02:41:49.795Z,56.60
2018-09-21T02:44:23.233Z,56.50
2018-09-21T02:46:56.921Z,56.50
2018-09-21T02:49:36.851Z,56.50
2018-09-21T02:52:10.549Z,56.60
2018-09-21T02:54:44.012Z,56.70
2018-09-21T02:57:18.476Z,56.80
2018-09-21T02:59:52.066Z,56.70
2018-09-21T03:02:25.693Z,56.80
2018-09-21T03:05:00.171Z,56.80
2018-09-21T03:07:39.996Z,56.70
2018-09-21T03:10:13.543Z,56.80
2018-09-21T03:12:47.097Z,57.00
2018-09-21T03:15:26.821Z,56.90
2018-09-21T03:18:00.189Z,57.00
2018-09-21T03:20:33.758Z,57.10
2018-09-21T03:23:07.127Z,57.10
2018-09-21T03:25:41.625Z,57.10
2018-09-21T03:28:15.235Z,57.00
2018-09-21T03:30:48.708Z,57.00
2018-09-21T03:33:23.261Z,56.90
2018-09-21T03:35:56.832Z,56.90
2018-09-21T03:38:31.350Z,56.90
2018-09-21T03:41:04.983Z,56.80
2018-09-21T03:43:38.782Z,57.00
2018-09-21T03:46:12.458Z,57.10
2018-09-21T03:48:45.963Z,57.00
2018-09-21T03:51:20.613Z,57.00
2018-09-21T03:53:57.351Z,56.90
2018-09-21T03:56:30.957Z,56.90
2018-09-21T03:59:10.971Z,56.90
2018-09-21T04:01:50.947Z,57.00
2018-09-21T04:04:24.409Z,56.90
2018-09-21T04:06:58.328Z,56.80
2018-09-21T04:09:32.023Z,56.80
2018-09-21T04:12:11.791Z,56.80
2018-09-21T04:14:45.383Z,56.70
2018-09-21T04:17:19.017Z,56.70
2018-09-21T04:19:52.452Z,56.60
2018-09-21T04:22:26.115Z,56.70
2018-09-21T04:25:07.291Z,56.60
2018-09-21T04:27:41.818Z,56.50
2018-09-21T04:30:15.540Z,56.50
2018-09-21T04:32:49.460Z,56.50
2018-09-21T04:35:29.972Z,56.40
2018-09-21T04:38:03.725Z,56.30
2018-09-21T04:40:38.414Z,56.20
2018-09-21T04:43:12.345Z,56.30
2018-09-21T04:45:46.257Z,56.10
2018-09-21T04:48:20.887Z,56.00
2018-09-21T04:50:54.715Z,55.90
2018-09-21T04:53:29.353Z,55.80
2018-09-21T04:56:09.753Z,55.60
2018-09-21T04:58:43.663Z,55.50
2018-09-21T05:01:23.789Z,55.50
2018-09-21T05:03:57.279Z,55.60
2018-09-21T05:06:30.927Z,55.50
2018-09-21T05:09:07.103Z,55.40
2018-09-21T05:11:47.219Z,55.30
2018-09-21T05:14:27.231Z,55.10
2018-09-21T05:17:00.699Z,55.00
2018-09-21T05:19:34.253Z,55.00
2018-09-21T05:22:07.944Z,54.90
2018-09-21T05:24:47.936Z,54.90
2018-09-21T05:27:27.982Z,54.80
2018-09-21T05:30:01.528Z,54.80
2018-09-21T05:32:35.703Z,54.70
2018-09-21T05:35:15.724Z,54.40
2018-09-21T05:37:49.085Z,54.50
2018-09-21T05:40:22.833Z,54.50
2018-09-21T05:42:57.504Z,54.40
2018-09-21T05:45:31.076Z,54.30
2018-09-21T05:48:04.538Z,54.30
2018-09-21T05:50:44.573Z,54.30
2018-09-21T05:53:24.555Z,54.20
2018-09-21T05:55:58.163Z,54.20
2018-09-21T05:58:31.887Z,54.00
2018-09-21T06:01:05.779Z,53.90
2018-09-21T06:03:39.469Z,53.80
2018-09-21T06:06:13.180Z,53.90
2018-09-21T06:08:53.083Z,53.80
2018-09-21T06:11:32.942Z,53.70
2018-09-21T06:14:06.505Z,53.60
2018-09-21T06:16:46.545Z,53.50
2018-09-21T06:19:26.457Z,53.50
2018-09-21T06:22:06.430Z,53.30
2018-09-21T06:24:39.887Z,53.30
2018-09-21T06:27:13.444Z,53.10
2018-09-21T06:29:53.329Z,53.30
2018-09-21T06:32:33.217Z,53.30
2018-09-21T06:35:12.998Z,54.50
2018-09-21T06:37:47.372Z,54.90
2018-09-21T06:40:20.877Z,55.80
2018-09-21T06:42:54.310Z,56.20
2018-09-21T06:45:27.888Z,55.80
2018-09-21T06:48:02.394Z,55.40
2018-09-21T06:50:36.812Z,55.50
2018-09-21T06:53:10.595Z,55.50
2018-09-21T06:55:50.437Z,55.30
2018-09-21T06:58:23.831Z,55.00
2018-09-21T07:01:00.304Z,55.10
2018-09-21T07:03:33.787Z,55.40
2018-09-21T07:06:07.671Z,56.40
2018-09-21T07:08:41.888Z,57.60
2018-09-21T07:11:15.379Z,58.30
2018-09-21T07:13:49.974Z,59.00
2018-09-21T07:16:23.373Z,60.00
2018-09-21T07:18:56.775Z,59.90
2018-09-21T07:21:30.329Z,59.70
2018-09-21T07:24:03.796Z,60.10
2018-09-21T07:26:37.217Z,63.60
2018-09-21T07:29:10.755Z,66.90
2018-09-21T07:31:44.228Z,69.50
2018-09-21T07:34:17.848Z,71.50
2018-09-21T07:36:57.618Z,73.10
2018-09-21T07:39:31.154Z,75.30
2018-09-21T07:42:05.526Z,75.90
2018-09-21T07:44:45.241Z,76.80
2018-09-21T07:47:25.064Z,77.30
2018-09-21T07:49:59.484Z,77.20
2018-09-21T07:52:33.041Z,77.80
2018-09-21T07:55:07.564Z,78.20
2018-09-21T07:57:47.458Z,78.90
2018-09-21T08:00:20.837Z,79.00
2018-09-21T08:02:54.497Z,78.80
2018-09-21T08:05:34.869Z,79.10
2018-09-21T08:08:14.597Z,79.10
2018-09-21T08:10:54.388Z,79.50
2018-09-21T08:13:34.351Z,79.70
2018-09-21T08:16:08.702Z,80.20
2018-09-21T08:18:42.371Z,80.30
2018-09-21T08:21:15.892Z,80.30
2018-09-21T08:23:50.316Z,80.60
2018-09-21T08:26:24.077Z,81.00
2018-09-21T08:28:58.396Z,80.50
2018-09-21T08:31:38.441Z,80.80
2018-09-21T08:34:18.492Z,80.60
2018-09-21T08:36:58.586Z,80.80
2018-09-21T08:39:33.131Z,80.80
2018-09-21T08:42:06.724Z,81.30
2018-09-21T08:44:40.499Z,81.30
2018-09-21T08:47:14.061Z,81.10
2018-09-21T08:49:54.152Z,81.20
2018-09-21T08:52:28.868Z,81.20
2018-09-21T08:55:03.439Z,80.80
2018-09-21T08:57:37.964Z,80.90
2018-09-21T09:00:11.548Z,80.50
2018-09-21T09:02:45.325Z,80.50
2018-09-21T09:05:21.431Z,80.20
2018-09-21T09:07:55.960Z,80.40
2018-09-21T09:10:35.835Z,80.80
2018-09-21T09:13:09.426Z,80.60
2018-09-21T09:15:50.167Z,80.50
2018-09-21T09:18:23.812Z,78.90
2018-09-21T09:21:03.879Z,77.30
2018-09-21T09:23:43.722Z,76.90
2018-09-21T09:26:17.388Z,75.10
2018-09-21T09:28:57.328Z,75.30
2018-09-21T09:31:37.362Z,74.20
2018-09-21T09:34:10.923Z,73.90
2018-09-21T09:36:44.392Z,74.50
2018-09-21T09:39:17.800Z,74.00
2018-09-21T09:41:52.328Z,74.10
2018-09-21T09:44:25.890Z,75.70
2018-09-21T09:46:59.548Z,75.00
2018-09-21T09:49:39.672Z,75.40
2018-09-21T09:52:14.282Z,75.80
2018-09-21T09:54:54.255Z,75.80
2018-09-21T09:57:27.839Z,75.20
2018-09-21T10:00:01.367Z,74.10
2018-09-21T10:02:34.715Z,73.70
2018-09-21T10:05:08.633Z,74.60
2018-09-21T10:07:48.604Z,73.60
2018-09-21T10:10:22.280Z,73.70
2018-09-21T10:12:55.901Z,72.50
2018-09-21T10:15:35.800Z,72.30
2018-09-21T10:18:15.854Z,72.80
2018-09-21T10:20:49.572Z,71.70
2018-09-21T10:23:23.199Z,69.90
2018-09-21T10:25:56.909Z,69.30
2018-09-21T10:28:30.589Z,69.30
2018-09-21T10:31:10.526Z,68.10
2018-09-21T10:33:45.368Z,65.80
2018-09-21T10:36:19.817Z,65.30
2018-09-21T10:38:59.661Z,65.40
2018-09-21T10:41:39.625Z,66.40
2018-09-21T10:44:13.186Z,66.90
2018-09-21T10:46:47.085Z,67.70
2018-09-21T10:49:20.569Z,63.80
2018-09-21T10:52:00.518Z,64.60
2018-09-21T10:54:34.111Z,62.60
2018-09-21T10:57:07.515Z,62.90
2018-09-21T10:59:41.117Z,65.50
2018-09-21T11:02:14.801Z,67.10
2018-09-21T11:04:48.411Z,68.40
2018-09-21T11:07:22.056Z,68.10
2018-09-21T11:10:01.835Z,66.30
2018-09-21T11:12:35.516Z,66.40
2018-09-21T11:15:09.071Z,67.50
2018-09-21T11:17:42.712Z,67.80
2018-09-21T11:20:17.380Z,68.30
2018-09-21T11:22:50.988Z,65.80
2018-09-21T11:25:24.960Z,64.60
2018-09-21T11:27:58.728Z,65.00
2018-09-21T11:30:32.569Z,62.50
2018-09-21T11:33:06.206Z,62.60
2018-09-21T11:35:46.414Z,61.80
2018-09-21T11:38:20.237Z,60.20
2018-09-21T11:41:00.376Z,61.30
2018-09-21T11:43:33.790Z,60.40
2018-09-21T11:46:07.549Z,59.30
2018-09-21T11:48:40.915Z,57.20
2018-09-21T11:51:14.488Z,56.70
2018-09-21T11:53:49.221Z,56.00
2018-09-21T11:56:22.784Z,55.20
2018-09-21T11:58:56.435Z,55.60
2018-09-21T12:01:36.661Z,55.90
2018-09-21T12:04:10.383Z,56.20
2018-09-21T12:06:44.180Z,55.80
2018-09-21T12:09:17.810Z,54.20
2018-09-21T12:11:52.232Z,55.10
2018-09-21T12:14:26.722Z,54.50
2018-09-21T12:17:00.481Z,53.80
2018-09-21T12:19:40.677Z,53.50
2018-09-21T12:22:20.702Z,53.20
2018-09-21T12:24:54.209Z,53.90
2018-09-21T12:27:34.300Z,54.80
2018-09-21T12:30:07.911Z,55.40
2018-09-21T12:32:47.914Z,55.30
2018-09-21T12:35:22.449Z,57.50
2018-09-21T12:37:56.234Z,59.50
2018-09-21T12:40:29.764Z,59.60
2018-09-21T12:43:03.477Z,60.10
2018-09-21T12:45:37.127Z,60.10
2018-09-21T12:48:17.114Z,60.90
2018-09-21T12:50:57.231Z,59.50
2018-09-21T12:53:32.101Z,58.50
2018-09-21T12:56:05.759Z,57.20
2018-09-21T12:58:45.960Z,58.00
2018-09-21T13:01:20.528Z,55.20
2018-09-21T13:04:00.596Z,53.60
2018-09-21T13:06:34.172Z,52.10
2018-09-21T13:09:07.976Z,51.30
2018-09-21T13:11:47.984Z,50.70
2018-09-21T13:14:21.554Z,51.60
2018-09-21T13:17:01.516Z,52.10
2018-09-21T13:19:41.414Z,53.10
2018-09-21T13:22:14.995Z,50.60
2018-09-21T13:24:54.852Z,50.50
2018-09-21T13:27:28.512Z,47.00
2018-09-21T13:30:02.003Z,47.30
2018-09-21T13:32:36.516Z,48.10
2018-09-21T13:35:16.455Z,45.70
2018-09-21T13:37:49.957Z,42.60
2018-09-21T13:40:23.552Z,41.50
2018-09-21T13:43:03.384Z,38.90
2018-09-21T13:45:36.984Z,40.70
2018-09-21T13:48:10.517Z,40.50
2018-09-21T13:50:44.743Z,41.70
2018-09-21T13:53:18.447Z,42.80
2018-09-21T13:55:52.009Z,44.10
2018-09-21T13:58:32.188Z,43.60
2018-09-21T14:01:06.106Z,42.80
2018-09-21T14:03:39.901Z,42.00
2018-09-21T14:06:13.791Z,41.90
2018-09-21T14:08:47.465Z,42.00
2018-09-21T14:11:27.341Z,43.40
2018-09-21T14:14:00.860Z,42.50
2018-09-21T14:16:40.863Z,42.40
2018-09-21T14:19:14.609Z,41.50
2018-09-21T14:21:54.790Z,39.40
2018-09-21T14:24:29.324Z,39.50
2018-09-21T14:27:04.152Z,40.30
2018-09-21T14:29:37.805Z,39.10
2018-09-21T14:32:11.648Z,38.90
2018-09-21T14:34:45.597Z,37.50
2018-09-21T14:37:25.616Z,37.80
2018-09-21T14:39:59.304Z,37.40
2018-09-21T14:42:33.254Z,37.00
2018-09-21T14:45:13.028Z,37.20
2018-09-21T14:47:46.542Z,38.00
2018-09-21T14:50:20.185Z,39.10
2018-09-21T14:52:53.790Z,40.20
2018-09-21T14:55:27.258Z,38.70
2018-09-21T14:58:07.011Z,39.00
2018-09-21T15:00:46.949Z,39.00
2018-09-21T15:03:20.679Z,39.80
2018-09-21T15:05:54.423Z,39.90
2018-09-21T15:08:28.253Z,39.60
2018-09-21T15:11:01.719Z,39.70
2018-09-21T15:13:41.863Z,39.80
2018-09-21T15:16:15.546Z,39.90
2018-09-21T15:18:55.629Z,40.30
2018-09-21T15:21:35.677Z,40.00
2018-09-21T15:24:11.150Z,39.50
2018-09-21T15:26:44.697Z,38.70
2018-09-21T15:29:18.524Z,39.70
2018-09-21T15:31:52.270Z,39.80
2018-09-21T15:34:25.692Z,39.80
2018-09-21T15:36:59.211Z,38.90
2018-09-21T15:39:32.996Z,39.40
2018-09-21T15:42:06.974Z,39.30
2018-09-21T15:44:46.833Z,39.60
2018-09-21T15:47:20.526Z,39.40
2018-09-21T15:50:00.448Z,39.30
2018-09-21T15:52:33.937Z,39.80
2018-09-21T15:55:07.579Z,39.30
2018-09-21T15:57:41.273Z,39.20
2018-09-21T16:00:17.018Z,39.90
2018-09-21T16:02:51.304Z,39.90
2018-09-21T16:05:26.449Z,40.00
2018-09-21T16:08:00.048Z,39.70
2018-09-21T16:10:40.032Z,40.50
2018-09-21T16:13:13.645Z,41.10
2018-09-21T16:15:47.758Z,39.90
2018-09-21T16:18:27.880Z,40.40
2018-09-21T16:21:07.891Z,40.10
2018-09-21T16:23:42.492Z,40.20
2018-09-21T16:26:15.927Z,39.90
2018-09-21T16:28:49.611Z,39.70
2018-09-21T16:31:23.265Z,40.40
2018-09-21T16:33:56.891Z,40.70
2018-09-21T16:36:31.720Z,40.60
2018-09-21T16:39:12.372Z,40.70
2018-09-21T16:41:52.419Z,41.40
2018-09-21T16:44:26.256Z,41.10
2018-09-21T16:46:59.939Z,41.50
2018-09-21T16:49:34.356Z,42.20
2018-09-21T16:52:14.332Z,42.00
2018-09-21T16:54:47.839Z,42.80
2018-09-21T16:57:27.772Z,42.70
2018-09-21T17:00:01.276Z,43.10
2018-09-21T17:02:41.253Z,43.50
2018-09-21T17:05:16.040Z,43.80
2018-09-21T17:07:50.240Z,42.60
2018-09-21T17:10:23.813Z,43.20
2018-09-21T17:13:03.817Z,43.00
2018-09-21T17:15:37.405Z,42.70
2018-09-21T17:18:17.585Z,42.40
2018-09-21T17:20:51.144Z,42.90
2018-09-21T17:23:24.724Z,42.40
2018-09-21T17:25:58.327Z,42.30
2018-09-21T17:28:32.229Z,42.80
2018-09-21T17:31:05.808Z,43.00
2018-09-21T17:33:39.453Z,42.80
2018-09-21T17:36:13.011Z,42.90
2018-09-21T17:38:52.859Z,43.00
2018-09-21T17:41:33.118Z,43.00
2018-09-21T17:44:13.170Z,42.60
2018-09-21T17:46:46.669Z,41.90
2018-09-21T17:49:27.293Z,43.90
2018-09-21T17:52:00.867Z,48.30
2018-09-21T17:54:34.460Z,52.80
2018-09-21T17:57:08.427Z,57.10
2018-09-21T17:59:48.377Z,60.40
2018-09-21T18:02:28.320Z,63.50
2018-09-21T18:05:01.812Z,64.70
2018-09-21T18:07:35.297Z,65.40
2018-09-21T18:10:10.772Z,66.10
2018-09-21T18:12:44.130Z,66.70
2018-09-21T18:15:24.023Z,66.80
2018-09-21T18:17:57.484Z,67.20
2018-09-21T18:20:37.334Z,68.40
2018-09-21T18:23:17.393Z,69.30
2018-09-21T18:25:57.365Z,69.80
2018-09-21T18:28:32.217Z,70.70
2018-09-21T18:31:05.779Z,71.10
2018-09-21T18:33:39.268Z,71.70
2018-09-21T18:36:12.800Z,71.80
2018-09-21T18:38:46.194Z,71.50
2018-09-21T18:41:20.533Z,71.90
2018-09-21T18:43:54.380Z,72.30
2018-09-21T18:46:28.009Z,72.20
2018-09-21T18:49:01.827Z,71.90
2018-09-21T18:51:35.372Z,71.60
2018-09-21T18:54:10.162Z,71.80
2018-09-21T18:56:44.207Z,72.50
2018-09-21T18:59:17.798Z,73.10
2018-09-21T19:01:57.856Z,73.40
2018-09-21T19:04:37.787Z,73.50
2018-09-21T19:07:17.161Z,73.20
2018-09-21T19:09:57.540Z,73.80
2018-09-21T19:12:37.562Z,73.80
2018-09-21T19:15:11.165Z,74.00
2018-09-21T19:17:44.812Z,74.40
2018-09-21T19:20:24.773Z,74.80
2018-09-21T19:22:58.472Z,75.00
2018-09-21T19:25:38.359Z,74.80
2018-09-21T19:28:12.114Z,75.40
2018-09-21T19:30:52.150Z,76.40
2018-09-21T19:33:25.716Z,76.90
2018-09-21T19:36:00.392Z,76.20
2018-09-21T19:38:34.263Z,76.40
2018-09-21T19:41:07.810Z,76.60
2018-09-21T19:43:41.384Z,76.90
2018-09-21T19:46:21.634Z,77.10
2018-09-21T19:49:01.461Z,77.20
2018-09-21T19:51:41.504Z,77.40
2018-09-21T19:54:15.057Z,77.00
2018-09-21T19:56:55.345Z,77.50
2018-09-21T19:59:35.432Z,77.60
2018-09-21T20:02:15.425Z,78.20
2018-09-21T20:04:49.111Z,78.40
2018-09-21T20:37:53.646Z,82.60
2018-09-21T20:40:27.406Z,84.20
2018-09-21T20:43:00.988Z,83.80
2018-09-21T20:45:34.499Z,83.50
2018-09-21T20:48:08.140Z,82.50
2018-09-21T20:50:48.370Z,82.40
2018-09-21T20:53:22.819Z,81.90
2018-09-21T20:56:02.930Z,81.30
2018-09-21T20:58:36.989Z,81.30
2018-09-21T21:01:10.761Z,81.10
2018-09-21T21:03:44.625Z,80.90
2018-09-21T21:06:19.566Z,80.80
2018-09-21T21:08:59.742Z,80.80
2018-09-21T21:11:33.456Z,81.00
2018-09-21T21:14:13.836Z,81.20
2018-09-21T21:16:47.981Z,81.20
2018-09-21T21:19:29.224Z,82.40
2018-09-21T21:22:09.635Z,81.80
2018-09-21T21:24:43.579Z,82.10
2018-09-21T21:27:23.656Z,82.00
2018-09-21T21:29:57.330Z,82.10
2018-09-21T21:32:30.752Z,82.30
2018-09-21T21:35:04.210Z,82.40
2018-09-21T21:37:38.887Z,82.40
2018-09-21T21:40:12.629Z,82.50
2018-09-21T21:42:52.655Z,82.60
2018-09-21T21:45:26.345Z,83.40
2018-09-21T21:48:00.744Z,82.60
2018-09-21T21:50:34.371Z,82.70
2018-09-21T21:53:08.166Z,82.90
2018-09-21T21:55:41.860Z,82.80
2018-09-21T21:58:15.631Z,82.60
2018-09-21T22:00:54.923Z,82.70
2018-09-21T22:03:29.524Z,82.60
2018-09-21T22:06:03.008Z,82.60
2018-09-21T22:08:46.340Z,82.70
2018-09-21T22:11:25.836Z,82.70
2018-09-21T22:14:07.426Z,82.90
2018-09-21T22:16:40.758Z,82.90
2018-09-21T22:19:14.225Z,82.90
2018-09-21T22:21:48.030Z,83.00
2018-09-21T22:24:21.427Z,83.10
2018-09-21T22:26:54.994Z,83.20
2018-09-21T22:29:28.373Z,83.20
2018-09-21T22:32:08.094Z,83.20
2018-09-21T22:34:47.840Z,83.50
2018-09-21T22:37:21.364Z,83.50
2018-09-21T22:39:54.734Z,83.60
2018-09-21T22:42:28.098Z,83.60
2018-09-21T22:45:02.578Z,84.70
2018-09-21T22:47:35.981Z,84.50
2018-09-21T22:50:09.650Z,84.80
2018-09-21T22:52:43.168Z,85.00
2018-09-21T22:55:16.626Z,84.80
2018-09-21T22:57:50.056Z,84.60
2018-09-21T23:00:23.551Z,84.70
2018-09-21T23:02:57.124Z,84.80
2018-09-21T23:05:30.617Z,85.30
2018-09-21T23:08:04.237Z,85.20
2018-09-21T23:10:44.037Z,85.20
2018-09-21T23:13:17.617Z,85.40
2018-09-21T23:15:51.466Z,85.30
2018-09-21T23:18:24.947Z,85.40
2018-09-21T23:21:04.794Z,85.30
2018-09-21T23:23:38.435Z,85.20
2018-09-21T23:26:12.025Z,85.20
2018-09-21T23:28:45.635Z,85.20
2018-09-21T23:38:28.513Z,85.50
2018-09-21T23:41:02.996Z,85.90
2018-09-21T23:43:36.624Z,85.70
2018-09-21T23:46:10.268Z,86.10
2018-09-21T23:48:43.787Z,86.00
2018-09-21T23:51:23.918Z,86.30
2018-09-21T23:53:57.392Z,86.00
2018-09-21T23:56:30.977Z,85.90
2018-09-21T23:59:11.005Z,85.80
